createdAt,value
2023-05-25T00:02:24.928Z,99394.13
2023-05-25T00:04:53.879Z,99391.41
2023-05-25T00:07:22.215Z,99386.31
2023-05-25T00:09:50.581Z,99386.28
2023-05-25T00:12:20.183Z,99394.44
2023-05-25T00:14:48.953Z,99391.31
2023-05-25T00:17:19.037Z,99393.69
2023-05-25T00:19:49.269Z,99392.88
2023-05-25T00:22:18.118Z,99393.66
2023-05-25T00:24:46.600Z,99396.38
2023-05-25T00:27:15.123Z,99386.59
2023-05-25T00:29:45.061Z,99393.25
2023-05-25T00:32:13.560Z,99390.13
2023-05-25T00:34:41.895Z,99385.44
2023-05-25T00:37:10.208Z,99386.22
2023-05-25T00:39:38.679Z,99385.09
2023-05-25T00:42:08.468Z,99389.75
2023-05-25T00:44:36.718Z,99383.09
2023-05-25T00:47:06.656Z,99388.16
2023-05-25T00:49:37.050Z,99390.06
2023-05-25T00:52:05.955Z,99390.47
2023-05-25T00:54:35.434Z,99394.34
2023-05-25T00:57:07.893Z,99384.19
2023-05-25T00:59:41.588Z,99384.59
2023-05-25T01:02:13.841Z,99385.00
2023-05-25T01:04:45.456Z,99380.72
2023-05-25T01:07:19.067Z,99392.38
2023-05-25T01:09:47.888Z,99377.19
2023-05-25T01:12:17.544Z,99386.50
2023-05-25T01:14:48.355Z,99380.28
2023-05-25T01:17:20.668Z,99385.78
2023-05-25T01:20:01.576Z,99383.06
2023-05-25T01:22:44.733Z,99376.41
2023-05-25T01:25:22.832Z,99377.59
2023-05-25T01:27:56.168Z,99377.22
2023-05-25T01:30:27.364Z,99365.13
2023-05-25T01:32:56.055Z,99377.97
2023-05-25T01:35:26.675Z,99374.44
2023-05-25T01:37:57.097Z,99370.53
2023-05-25T01:40:25.419Z,99369.34
2023-05-25T01:42:53.826Z,99366.59
2023-05-25T01:45:22.476Z,99369.34
2023-05-25T01:47:58.901Z,99368.16
2023-05-25T01:50:36.928Z,99362.31
2023-05-25T01:53:11.519Z,99364.63
2023-05-25T01:55:47.968Z,99364.63
2023-05-25T01:58:18.208Z,99374.75
2023-05-25T02:00:48.056Z,99381.75
2023-05-25T02:03:16.888Z,99378.97
2023-05-25T02:05:46.974Z,99382.53
2023-05-25T02:08:16.685Z,99382.91
2023-05-25T02:10:44.938Z,99376.66
2023-05-25T02:13:13.218Z,99378.16
2023-05-25T02:15:41.896Z,99391.00
2023-05-25T02:18:11.154Z,99388.28
2023-05-25T02:20:39.992Z,99389.03
2023-05-25T02:23:08.684Z,99389.38
2023-05-25T02:25:38.697Z,99384.34
2023-05-25T02:28:07.325Z,99376.88
2023-05-25T02:30:35.600Z,99387.34
2023-05-25T02:33:04.046Z,99395.53
2023-05-25T02:35:32.946Z,99393.56
2023-05-25T02:38:01.225Z,99392.47
2023-05-25T02:40:29.978Z,99384.69
2023-05-25T02:42:59.713Z,99388.59
2023-05-25T02:45:28.148Z,99388.59
2023-05-25T02:47:56.592Z,99383.91
2023-05-25T02:50:29.569Z,99390.13
2023-05-25T02:52:58.117Z,99388.97
2023-05-25T02:55:26.530Z,99388.97
2023-05-25T02:57:55.086Z,99400.63
2023-05-25T03:00:25.131Z,99395.53
2023-05-25T03:02:53.545Z,99394.00
2023-05-25T03:05:21.915Z,99399.50
2023-05-25T03:07:56.079Z,99401.81
2023-05-25T03:10:24.405Z,99407.28
2023-05-25T03:12:53.347Z,99416.59
2023-05-25T03:15:23.335Z,99413.13
2023-05-25T03:17:56.985Z,99418.63
2023-05-25T03:20:26.680Z,99416.78
2023-05-25T03:22:56.782Z,99417.97
2023-05-25T03:25:26.086Z,99423.44
2023-05-25T03:27:55.041Z,99423.88
2023-05-25T03:30:23.732Z,99423.94
2023-05-25T03:32:53.820Z,99426.28
2023-05-25T03:35:22.115Z,99427.09
2023-05-25T03:37:50.381Z,99429.47
2023-05-25T03:40:21.321Z,99421.31
2023-05-25T03:42:49.616Z,99412.41
2023-05-25T03:45:17.858Z,99422.22
2023-05-25T03:47:46.521Z,99415.59
2023-05-25T03:50:16.286Z,99418.00
2023-05-25T03:52:44.582Z,99419.56
2023-05-25T03:55:15.145Z,99418.78
2023-05-25T03:57:43.415Z,99419.19
2023-05-25T04:00:12.837Z,99421.13
2023-05-25T04:02:41.107Z,99424.66
2023-05-25T04:05:10.052Z,99421.09
2023-05-25T04:07:40.845Z,99428.94
2023-05-25T04:10:09.855Z,99429.66
2023-05-25T04:12:38.936Z,99428.50
2023-05-25T04:15:09.743Z,99427.31
2023-05-25T04:17:39.525Z,99427.34
2023-05-25T04:20:10.030Z,99430.84
2023-05-25T04:22:40.086Z,99435.91
2023-05-25T04:25:09.045Z,99436.69
2023-05-25T04:27:37.788Z,99438.22
2023-05-25T04:30:06.696Z,99439.00
2023-05-25T04:32:37.719Z,99441.69
2023-05-25T04:35:06.986Z,99444.78
2023-05-25T04:37:37.247Z,99448.31
2023-05-25T04:40:11.605Z,99436.91
2023-05-25T04:42:40.222Z,99448.56
2023-05-25T04:45:11.086Z,99439.03
2023-05-25T04:47:41.266Z,99443.22
2023-05-25T04:50:17.511Z,99443.47
2023-05-25T04:52:45.625Z,99444.63
2023-05-25T04:55:15.126Z,99442.66
2023-05-25T04:57:43.452Z,99443.25
2023-05-25T05:00:12.935Z,99443.53
2023-05-25T05:02:41.009Z,99454.22
2023-05-25T05:05:10.872Z,99449.19
2023-05-25T05:07:39.617Z,99445.13
2023-05-25T05:10:11.275Z,99449.09
2023-05-25T05:12:41.216Z,99451.97
2023-05-25T05:15:09.801Z,99449.72
2023-05-25T05:17:38.663Z,99443.91
2023-05-25T05:20:08.979Z,99448.56
2023-05-25T05:22:39.153Z,99446.28
2023-05-25T05:25:08.581Z,99448.56
2023-05-25T05:27:36.741Z,99446.44
2023-05-25T05:30:07.933Z,99453.31
2023-05-25T05:32:36.141Z,99457.50
2023-05-25T05:35:04.375Z,99455.34
2023-05-25T05:37:32.871Z,99457.22
2023-05-25T05:40:01.057Z,99461.31
2023-05-25T05:42:29.241Z,99452.59
2023-05-25T05:44:57.652Z,99449.34
2023-05-25T05:47:27.332Z,99456.41
2023-05-25T05:49:55.588Z,99454.66
2023-05-25T05:52:24.010Z,99455.84
2023-05-25T05:54:52.235Z,99460.31
2023-05-25T05:57:20.528Z,99457.25
2023-05-25T05:59:48.897Z,99457.00
2023-05-25T06:02:17.371Z,99463.91
2023-05-25T06:04:46.992Z,99456.44
2023-05-25T06:07:15.136Z,99458.75
2023-05-25T06:09:43.192Z,99452.97
2023-05-25T06:12:11.338Z,99456.44
2023-05-25T06:14:39.546Z,99451.84
2023-05-25T06:17:08.015Z,99452.03
2023-05-25T06:19:36.289Z,99452.03
2023-05-25T06:22:07.491Z,99457.88
2023-05-25T06:24:35.638Z,99465.50
2023-05-25T06:27:05.138Z,99458.09
2023-05-25T06:29:33.295Z,99474.56
2023-05-25T06:32:04.724Z,99471.81
2023-05-25T06:34:33.021Z,99472.31
2023-05-25T06:37:02.064Z,99474.66
2023-05-25T06:39:32.700Z,99476.97
2023-05-25T06:42:01.459Z,99480.94
2023-05-25T06:44:29.726Z,99470.03
2023-05-25T06:46:58.077Z,99474.22
2023-05-25T06:49:26.259Z,99464.06
2023-05-25T06:51:54.440Z,99466.38
2023-05-25T06:54:22.707Z,99469.72
2023-05-25T06:56:53.083Z,99460.66
2023-05-25T06:59:21.239Z,99458.59
2023-05-25T07:01:50.123Z,99460.50
2023-05-25T07:04:18.347Z,99458.47
2023-05-25T07:06:48.394Z,99459.38
2023-05-25T07:09:17.576Z,99460.16
2023-05-25T07:11:45.893Z,99459.38
2023-05-25T07:14:15.443Z,99470.59
2023-05-25T07:16:45.445Z,99462.16
2023-05-25T07:19:31.903Z,99464.03
2023-05-25T07:22:00.778Z,99464.91
2023-05-25T07:24:29.495Z,99464.81
2023-05-25T07:26:57.782Z,99458.59
2023-05-25T07:29:27.297Z,99462.94
2023-05-25T07:31:56.109Z,99466.00
2023-05-25T07:34:25.781Z,99458.63
2023-05-25T07:36:55.260Z,99466.91
2023-05-25T07:39:23.297Z,99460.97
2023-05-25T07:41:51.832Z,99457.59
2023-05-25T07:44:19.936Z,99471.66
2023-05-25T07:46:49.622Z,99475.19
2023-05-25T07:49:17.783Z,99473.63
2023-05-25T07:51:46.366Z,99462.75
2023-05-25T07:54:14.605Z,99470.38
2023-05-25T07:56:42.773Z,99465.41
2023-05-25T07:59:11.539Z,99474.34
2023-05-25T08:01:40.102Z,99464.94
2023-05-25T08:04:09.883Z,99468.72
2023-05-25T08:06:38.674Z,99458.31
2023-05-25T08:09:08.237Z,99471.69
2023-05-25T08:11:36.741Z,99475.91
2023-05-25T08:14:05.393Z,99464.81
2023-05-25T08:16:36.900Z,99462.47
2023-05-25T08:19:06.711Z,99460.13
2023-05-25T08:21:37.845Z,99456.69
2023-05-25T08:24:08.439Z,99466.69
2023-05-25T08:26:53.321Z,99466.19
2023-05-25T08:29:24.016Z,99465.00
2023-05-25T08:31:58.131Z,99455.94
2023-05-25T08:34:26.966Z,99456.09
2023-05-25T08:36:58.605Z,99452.28
2023-05-25T08:39:27.447Z,99454.78
2023-05-25T08:41:55.766Z,99463.72
2023-05-25T08:44:24.533Z,99454.22
2023-05-25T08:46:57.984Z,99455.66
2023-05-25T08:49:29.892Z,99446.25
2023-05-25T08:52:00.386Z,99445.09
2023-05-25T08:54:38.221Z,99433.31
2023-05-25T08:57:14.558Z,99438.28
2023-05-25T08:59:54.427Z,99443.03
2023-05-25T09:02:28.071Z,99441.06
2023-05-25T09:04:57.293Z,99434.81
2023-05-25T09:07:28.154Z,99437.84
2023-05-25T09:09:57.976Z,99441.06
2023-05-25T09:12:26.610Z,99437.84
2023-05-25T09:14:55.548Z,99430.03
2023-05-25T09:17:24.371Z,99428.34
2023-05-25T09:19:53.138Z,99426.13
2023-05-25T09:22:21.810Z,99422.22
2023-05-25T09:24:52.011Z,99424.22
2023-05-25T09:27:21.459Z,99428.88
2023-05-25T09:29:50.280Z,99414.63
2023-05-25T09:32:21.325Z,99419.41
2023-05-25T09:34:50.023Z,99415.41
2023-05-25T09:37:20.224Z,99415.56
2023-05-25T09:39:52.976Z,99406.97
2023-05-25T09:42:22.136Z,99414.56
2023-05-25T09:44:50.544Z,99404.31
2023-05-25T09:47:19.256Z,99401.84
2023-05-25T09:49:50.096Z,99397.72
2023-05-25T09:52:18.700Z,99389.31
2023-05-25T09:54:47.422Z,99390.38
2023-05-25T09:57:18.196Z,99386.06
2023-05-25T09:59:53.958Z,99381.25
2023-05-25T10:02:22.613Z,99382.44
2023-05-25T10:04:50.944Z,99389.31
2023-05-25T10:07:20.125Z,99383.63
2023-05-25T10:09:53.547Z,99377.72
2023-05-25T10:12:25.502Z,99374.94
2023-05-25T10:14:57.057Z,99373.06
2023-05-25T10:17:27.694Z,99374.19
2023-05-25T10:19:58.984Z,99375.66
2023-05-25T10:22:34.111Z,99374.78
2023-05-25T10:25:09.557Z,99367.06
2023-05-25T10:27:42.277Z,99361.59
2023-05-25T10:30:11.825Z,99373.97
2023-05-25T10:32:42.241Z,99379.94
2023-05-25T10:35:11.550Z,99384.41
2023-05-25T10:37:41.179Z,99390.56
2023-05-25T10:40:10.258Z,99404.31
2023-05-25T10:42:41.287Z,99395.94
2023-05-25T10:45:14.495Z,99381.63
2023-05-25T10:47:43.382Z,99369.28
2023-05-25T10:50:22.570Z,99375.66
2023-05-25T10:53:01.727Z,99375.63
2023-05-25T10:55:32.756Z,99363.75
2023-05-25T10:58:16.968Z,99371.00
2023-05-25T11:00:59.608Z,99378.84
2023-05-25T11:03:49.921Z,99379.22
2023-05-25T11:06:21.593Z,99379.78
2023-05-25T11:08:51.248Z,99372.94
2023-05-25T11:11:19.392Z,99381.72
2023-05-25T11:13:49.490Z,99387.41
2023-05-25T11:16:20.243Z,99391.09
2023-05-25T11:18:52.836Z,99388.84
2023-05-25T11:21:43.901Z,99391.72
2023-05-25T11:24:15.229Z,99391.44
2023-05-25T11:26:57.894Z,99391.34
2023-05-25T11:29:33.243Z,99388.66
2023-05-25T11:32:02.858Z,99383.31
2023-05-25T11:34:33.362Z,99381.06
2023-05-25T11:37:04.368Z,99387.56
2023-05-25T11:39:32.811Z,99395.19
2023-05-25T11:42:05.203Z,99389.41
2023-05-25T11:44:36.927Z,99384.44
2023-05-25T11:47:08.803Z,99388.63
2023-05-25T11:49:42.062Z,99382.47
2023-05-25T11:52:10.555Z,99372.78
2023-05-25T11:54:41.190Z,99367.31
2023-05-25T11:57:17.205Z,99374.50
2023-05-25T11:59:51.509Z,99366.28
2023-05-25T12:02:20.249Z,99362.84
2023-05-25T12:04:55.956Z,99366.66
2023-05-25T12:07:24.646Z,99370.03
2023-05-25T12:09:53.030Z,99373.72
2023-05-25T12:12:21.636Z,99363.88
2023-05-25T12:14:52.020Z,99360.75
2023-05-25T12:17:22.684Z,99356.44
2023-05-25T12:19:51.907Z,99349.91
2023-05-25T12:22:21.558Z,99350.00
2023-05-25T12:24:50.883Z,99353.06
2023-05-25T12:27:23.184Z,99360.16
2023-05-25T12:29:53.534Z,99359.47
2023-05-25T12:32:21.963Z,99358.13
2023-05-25T12:34:50.153Z,99357.38
2023-05-25T12:37:22.579Z,99354.50
2023-05-25T12:39:51.982Z,99340.28
2023-05-25T12:42:20.904Z,99348.13
2023-05-25T12:44:55.531Z,99352.06
2023-05-25T12:47:28.817Z,99352.91
2023-05-25T12:50:12.904Z,99355.69
2023-05-25T12:52:44.334Z,99354.69
2023-05-25T12:55:29.388Z,99350.44
2023-05-25T12:57:58.638Z,99349.78
2023-05-25T13:00:31.954Z,99349.88
2023-05-25T13:03:02.085Z,99346.78
2023-05-25T13:05:34.039Z,99353.22
2023-05-25T13:08:03.321Z,99352.97
2023-05-25T13:10:32.963Z,99360.91
2023-05-25T13:13:02.168Z,99361.94
2023-05-25T13:15:30.360Z,99350.53
2023-05-25T13:17:59.093Z,99350.91
2023-05-25T13:20:32.979Z,99388.03
2023-05-25T13:23:03.201Z,99361.44
2023-05-25T13:25:31.966Z,99364.03
2023-05-25T13:28:01.328Z,99379.66
2023-05-25T13:30:29.675Z,99383.84
2023-05-25T13:32:58.098Z,99382.25
2023-05-25T13:35:41.714Z,99379.97
2023-05-25T13:38:11.816Z,99395.69
2023-05-25T13:40:40.057Z,99390.19
2023-05-25T13:43:08.630Z,99393.66
2023-05-25T13:45:36.844Z,99399.41
2023-05-25T13:48:05.321Z,99405.03
2023-05-25T13:50:33.577Z,99399.78
2023-05-25T13:53:01.702Z,99408.31
2023-05-25T13:55:31.244Z,99392.81
2023-05-25T13:57:59.506Z,99409.88
2023-05-25T14:00:27.724Z,99405.00
2023-05-25T14:02:56.031Z,99407.34
2023-05-25T14:05:24.358Z,99422.94
2023-05-25T14:07:55.716Z,99418.81
2023-05-25T14:10:24.527Z,99424.06
2023-05-25T14:12:54.131Z,99439.72
2023-05-25T14:15:22.218Z,99449.41
2023-05-25T14:17:50.640Z,99445.06
2023-05-25T14:20:25.537Z,99444.09
2023-05-25T14:22:54.449Z,99439.22
2023-05-25T14:25:23.063Z,99444.47
2023-05-25T14:27:54.633Z,99450.84
2023-05-25T14:30:24.203Z,99452.47
2023-05-25T14:32:52.683Z,99444.75
2023-05-25T14:35:20.979Z,99434.00
2023-05-25T14:37:49.137Z,99428.66
2023-05-25T14:40:17.732Z,99437.41
2023-05-25T14:42:46.273Z,99426.75
2023-05-25T14:45:16.082Z,99429.06
2023-05-25T14:47:46.136Z,99439.28
2023-05-25T14:50:14.807Z,99433.50
2023-05-25T14:52:43.159Z,99425.19
2023-05-25T14:55:11.656Z,99433.09
2023-05-25T14:57:40.220Z,99439.72
2023-05-25T15:00:10.022Z,99441.34
2023-05-25T15:02:38.389Z,99444.09
2023-05-25T15:05:09.576Z,99452.72
2023-05-25T15:07:38.102Z,99448.72
2023-05-25T15:10:10.284Z,99448.91
2023-05-25T15:12:38.590Z,99446.59
2023-05-25T15:15:09.395Z,99461.59
2023-05-25T15:17:38.571Z,99457.53
2023-05-25T15:20:09.231Z,99463.69
2023-05-25T15:22:37.917Z,99460.81
2023-05-25T15:25:07.115Z,99460.94
2023-05-25T15:27:35.447Z,99452.25
2023-05-25T15:30:03.707Z,99461.88
2023-05-25T15:32:31.889Z,99445.53
2023-05-25T15:35:00.071Z,99437.03
2023-05-25T15:37:31.143Z,99431.88
2023-05-25T15:39:59.477Z,99430.03
2023-05-25T15:42:27.618Z,99427.72
2023-05-25T15:44:55.823Z,99422.22
2023-05-25T15:47:24.598Z,99419.00
2023-05-25T15:49:53.203Z,99412.31
2023-05-25T15:52:21.385Z,99413.34
2023-05-25T15:54:51.712Z,99405.25
2023-05-25T15:57:20.444Z,99398.97
2023-05-25T15:59:48.771Z,99395.59
2023-05-25T16:02:16.948Z,99403.81
2023-05-25T16:04:45.381Z,99399.13
2023-05-25T16:07:14.271Z,99398.44
2023-05-25T16:09:42.376Z,99392.66
2023-05-25T16:12:11.901Z,99389.47
2023-05-25T16:14:40.699Z,99391.88
2023-05-25T16:17:08.884Z,99390.25
2023-05-25T16:19:37.124Z,99392.38
2023-05-25T16:22:06.486Z,99397.91
2023-05-25T16:24:34.610Z,99390.97
2023-05-25T16:27:03.157Z,99389.94
2023-05-25T16:29:32.897Z,99390.34
2023-05-25T16:32:00.948Z,99391.91
2023-05-25T16:34:29.101Z,99389.16
2023-05-25T16:36:57.174Z,99403.63
2023-05-25T16:39:25.325Z,99412.25
2023-05-25T16:41:53.408Z,99422.22
2023-05-25T16:44:21.695Z,99425.69
2023-05-25T16:46:52.079Z,99447.84
2023-05-25T16:49:20.344Z,99450.31
2023-05-25T16:51:48.502Z,99451.75
2023-05-25T16:54:16.872Z,99451.66
2023-05-25T16:56:45.156Z,99447.66
2023-05-25T16:59:13.520Z,99442.69
2023-05-25T17:01:41.756Z,99445.84
2023-05-25T17:04:11.420Z,99454.75
2023-05-25T17:06:39.614Z,99455.97
2023-05-25T17:09:08.730Z,99451.59
2023-05-25T17:11:36.898Z,99456.00
2023-05-25T17:14:05.101Z,99446.53
2023-05-25T17:16:33.206Z,99442.53
2023-05-25T17:19:01.450Z,99446.44
2023-05-25T17:21:30.937Z,99441.22
2023-05-25T17:23:59.480Z,99433.38
2023-05-25T17:26:31.107Z,99425.19
2023-05-25T17:29:00.851Z,99428.72
2023-05-25T17:31:29.317Z,99420.53
2023-05-25T17:33:57.559Z,99422.19
2023-05-25T17:36:25.879Z,99422.31
2023-05-25T17:38:55.357Z,99423.84
2023-05-25T17:41:23.882Z,99418.88
2023-05-25T17:43:52.326Z,99422.50
2023-05-25T17:46:20.616Z,99433.13
2023-05-25T17:48:48.927Z,99433.56
2023-05-25T17:51:17.184Z,99430.50
2023-05-25T17:53:45.317Z,99439.59
2023-05-25T17:56:14.761Z,99430.50
2023-05-25T17:58:47.684Z,99441.50
2023-05-25T18:01:16.584Z,99433.00
2023-05-25T18:03:44.888Z,99431.50
2023-05-25T18:06:13.251Z,99421.75
2023-05-25T18:08:41.373Z,99432.44
2023-05-25T18:11:09.491Z,99426.88
2023-05-25T18:13:39.051Z,99432.44
2023-05-25T18:16:07.338Z,99431.28
2023-05-25T18:18:35.616Z,99437.19
2023-05-25T18:21:03.926Z,99438.00
2023-05-25T18:23:32.763Z,99431.88
2023-05-25T18:26:01.131Z,99442.03
2023-05-25T18:28:31.287Z,99445.22
2023-05-25T18:31:01.183Z,99449.13
2023-05-25T18:33:29.694Z,99448.81
2023-05-25T18:35:58.647Z,99446.50
2023-05-25T18:38:26.862Z,99445.78
2023-05-25T18:40:55.314Z,99447.78
2023-05-25T18:43:23.330Z,99448.97
2023-05-25T18:45:51.641Z,99451.00
2023-05-25T18:48:23.737Z,99452.94
2023-05-25T18:50:52.184Z,99463.53
2023-05-25T18:53:20.529Z,99458.81
2023-05-25T18:55:48.554Z,99461.25
2023-05-25T18:58:16.811Z,99457.22
2023-05-25T19:00:44.907Z,99457.09
2023-05-25T19:03:13.099Z,99463.44
2023-05-25T19:05:43.044Z,99467.78
2023-05-25T19:08:11.292Z,99464.25
2023-05-25T19:10:41.695Z,99468.22
2023-05-25T19:13:10.151Z,99471.81
2023-05-25T19:15:38.337Z,99475.25
2023-05-25T19:18:06.845Z,99461.50
2023-05-25T19:20:36.024Z,99469.63
2023-05-25T19:23:06.304Z,99476.28
2023-05-25T19:25:34.687Z,99477.88
2023-05-25T19:28:03.484Z,99474.75
2023-05-25T19:30:31.860Z,99483.44
2023-05-25T19:33:00.067Z,99475.25
2023-05-25T19:35:28.377Z,99472.28
2023-05-25T19:37:56.603Z,99477.78
2023-05-25T19:40:26.247Z,99472.78
2023-05-25T19:42:54.355Z,99475.97
2023-05-25T19:45:22.606Z,99473.66
2023-05-25T19:47:52.095Z,99475.66
2023-05-25T19:50:20.251Z,99467.81
2023-05-25T19:52:48.374Z,99470.56
2023-05-25T19:55:16.566Z,99470.19
2023-05-25T19:57:45.967Z,99468.63
2023-05-25T20:00:25.441Z,99474.03
2023-05-25T20:02:54.814Z,99464.69
2023-05-25T20:05:23.176Z,99466.66
2023-05-25T20:07:52.721Z,99467.09
2023-05-25T20:10:21.113Z,99468.97
2023-05-25T20:12:50.624Z,99467.06
2023-05-25T20:15:18.796Z,99462.75
2023-05-25T20:17:46.917Z,99466.72
2023-05-25T20:20:15.862Z,99478.84
2023-05-25T20:22:44.209Z,99472.63
2023-05-25T20:25:12.358Z,99471.81
2023-05-25T20:27:40.520Z,99467.06
2023-05-25T20:30:12.755Z,99469.41
2023-05-25T20:32:42.440Z,99460.06
2023-05-25T20:35:10.963Z,99471.00
2023-05-25T20:37:42.264Z,99471.03
2023-05-25T20:40:10.871Z,99467.53
2023-05-25T20:42:39.083Z,99464.78
2023-05-25T20:45:10.012Z,99473.88
2023-05-25T20:47:40.729Z,99475.41
2023-05-25T20:50:09.425Z,99466.81
2023-05-25T20:52:37.587Z,99467.97
2023-05-25T20:55:06.804Z,99461.31
2023-05-25T20:57:35.172Z,99462.50
2023-05-25T21:00:03.742Z,99458.19
2023-05-25T21:02:33.559Z,99454.69
2023-05-25T21:05:01.841Z,99455.03
2023-05-25T21:07:30.114Z,99450.00
2023-05-25T21:09:59.515Z,99449.25
2023-05-25T21:12:27.849Z,99463.31
2023-05-25T21:14:56.154Z,99462.16
2023-05-25T21:17:24.478Z,99458.25
2023-05-25T21:19:54.002Z,99463.78
2023-05-25T21:22:22.191Z,99459.13
2023-05-25T21:24:50.633Z,99460.31
2023-05-25T21:27:18.929Z,99452.13
2023-05-25T21:29:47.132Z,99463.09
2023-05-25T21:32:15.404Z,99456.44
2023-05-25T21:34:43.628Z,99458.84
2023-05-25T21:37:13.201Z,99458.50
2023-05-25T21:39:41.243Z,99462.03
2023-05-25T21:42:10.798Z,99458.53
2023-05-25T21:44:38.984Z,99450.78
2023-05-25T21:47:07.291Z,99452.72
2023-05-25T21:49:35.662Z,99448.81
2023-05-25T21:52:05.309Z,99451.50
2023-05-25T21:54:34.963Z,99446.81
2023-05-25T21:57:03.876Z,99447.22
2023-05-25T21:59:32.145Z,99442.50
2023-05-25T22:02:00.373Z,99439.34
2023-05-25T22:04:28.540Z,99436.66
2023-05-25T22:06:57.173Z,99430.03
2023-05-25T22:09:25.464Z,99433.16
2023-05-25T22:11:54.977Z,99438.97
2023-05-25T22:14:23.184Z,99423.31
2023-05-25T22:16:51.484Z,99419.75
2023-05-25T22:19:19.752Z,99426.03
2023-05-25T22:21:48.831Z,99429.19
2023-05-25T22:24:16.966Z,99419.44
2023-05-25T22:26:45.146Z,99422.59
2023-05-25T22:29:15.780Z,99418.69
2023-05-25T22:31:43.953Z,99423.41
2023-05-25T22:34:12.008Z,99419.13
2023-05-25T22:36:40.058Z,99412.88
2023-05-25T22:39:08.386Z,99430.09
2023-05-25T22:41:36.548Z,99429.75
2023-05-25T22:44:04.830Z,99431.75
2023-05-25T22:46:34.314Z,99430.97
2023-05-25T22:49:02.433Z,99433.31
2023-05-25T22:51:30.608Z,99429.44
2023-05-25T22:53:58.817Z,99426.34
2023-05-25T22:56:27.726Z,99427.53
2023-05-25T22:58:56.760Z,99427.97
2023-05-25T23:01:24.917Z,99423.28
2023-05-25T23:03:54.523Z,99422.13
2023-05-25T23:06:22.768Z,99426.03
2023-05-25T23:08:51.052Z,99425.25
2023-05-25T23:11:19.386Z,99420.50
2023-05-25T23:13:47.634Z,99437.31
2023-05-25T23:16:18.789Z,99429.47
2023-05-25T23:18:46.997Z,99432.19
2023-05-25T23:21:16.518Z,99422.44
2023-05-25T23:23:44.676Z,99428.31
2023-05-25T23:26:12.846Z,99430.69
2023-05-25T23:28:41.112Z,99434.16
2023-05-25T23:31:09.395Z,99434.91
2023-05-25T23:33:37.538Z,99429.03
2023-05-25T23:36:06.104Z,99426.25
2023-05-25T23:38:35.669Z,99425.47
2023-05-25T23:41:03.791Z,99418.81
2023-05-25T23:43:31.928Z,99415.69
2023-05-25T23:46:00.165Z,99417.66
2023-05-25T23:48:28.442Z,99413.00
2023-05-25T23:50:56.620Z,99406.75
2023-05-25T23:53:24.626Z,99407.59
2023-05-25T23:55:54.055Z,99415.84
2023-05-25T23:58:22.209Z,99414.72
